createdAt,value
2019-02-03T00:00:41.633Z,20.30
2019-02-03T00:03:08.960Z,18.87
2019-02-03T00:05:36.241Z,15.83
2019-02-03T00:08:03.489Z,17.70
2019-02-03T00:10:30.767Z,16.70
2019-02-03T00:12:58.097Z,14.50
2019-02-03T00:15:25.437Z,16.50
2019-02-03T00:17:52.804Z,15.63
2019-02-03T00:20:20.449Z,19.13
2019-02-03T00:22:47.696Z,16.97
2019-02-03T00:25:14.978Z,19.17
2019-02-03T00:27:42.229Z,19.50
2019-02-03T00:30:10.973Z,19.40
2019-02-03T00:32:38.255Z,18.53
2019-02-03T00:35:05.760Z,21.03
2019-02-03T00:37:33.007Z,27.27
2019-02-03T00:40:00.375Z,20.37
2019-02-03T00:42:27.695Z,26.30
2019-02-03T00:44:54.946Z,25.30
2019-02-03T00:47:22.224Z,24.53
2019-02-03T00:49:49.507Z,23.13
2019-02-03T00:52:16.760Z,20.13
2019-02-03T00:54:44.040Z,25.07
2019-02-03T00:57:11.313Z,30.53
2019-02-03T00:59:38.594Z,25.30
2019-02-03T01:02:05.846Z,38.77
2019-02-03T01:04:33.126Z,35.60
2019-02-03T01:07:00.862Z,29.90
2019-02-03T01:09:28.181Z,26.77
2019-02-03T01:11:55.709Z,23.33
2019-02-03T01:14:23.057Z,27.40
2019-02-03T01:16:50.319Z,36.70
2019-02-03T01:19:17.598Z,29.43
2019-02-03T01:21:44.849Z,31.03
2019-02-03T01:24:12.193Z,28.93
2019-02-03T01:26:39.469Z,28.30
2019-02-03T01:29:06.745Z,27.90
2019-02-03T01:31:34.097Z,29.67
2019-02-03T01:34:01.383Z,29.30
2019-02-03T01:36:28.914Z,37.77
2019-02-03T01:38:56.270Z,31.07
2019-02-03T01:41:23.546Z,29.90
2019-02-03T01:43:50.831Z,34.00
2019-02-03T01:46:18.074Z,32.83
2019-02-03T01:48:45.357Z,29.13
2019-02-03T01:51:12.638Z,35.70
2019-02-03T01:53:39.890Z,33.73
2019-02-03T01:56:07.337Z,33.80
2019-02-03T01:58:34.613Z,33.80
2019-02-03T02:01:01.942Z,36.70
2019-02-03T02:03:29.281Z,37.23
2019-02-03T02:05:56.813Z,39.20
2019-02-03T02:08:24.352Z,39.20
2019-02-03T02:10:51.885Z,37.67
2019-02-03T02:13:19.430Z,37.53
2019-02-03T02:15:46.682Z,42.00
2019-02-03T02:18:13.954Z,49.07
2019-02-03T02:20:41.242Z,50.47
2019-02-03T02:23:08.490Z,46.53
2019-02-03T02:25:35.747Z,50.80
2019-02-03T02:28:03.574Z,48.80
2019-02-03T02:30:31.007Z,49.47
2019-02-03T02:32:58.456Z,51.40
2019-02-03T02:35:25.715Z,47.17
2019-02-03T02:38:05.914Z,46.43
2019-02-03T02:40:22.973Z,53.90
2019-02-03T02:42:50.346Z,55.83
2019-02-03T02:45:17.704Z,49.97
2019-02-03T02:47:45.195Z,58.97
2019-02-03T02:50:14.002Z,48.27
2019-02-03T02:52:41.250Z,52.20
2019-02-03T02:55:09.105Z,55.73
2019-02-03T02:57:36.603Z,53.77
2019-02-03T03:00:05.699Z,56.73
2019-02-03T03:02:32.951Z,49.67
2019-02-03T03:05:00.491Z,51.47
2019-02-03T03:07:27.844Z,54.30
2019-02-03T03:09:55.091Z,50.27
2019-02-03T03:12:22.371Z,48.93
2019-02-03T03:14:49.646Z,48.17
2019-02-03T03:17:17.143Z,50.27
2019-02-03T03:19:44.413Z,49.13
2019-02-03T03:22:11.706Z,48.83
2019-02-03T03:24:38.991Z,58.33
2019-02-03T03:27:06.269Z,50.13
2019-02-03T03:29:34.044Z,56.93
2019-02-03T03:32:01.700Z,59.83
2019-02-03T03:34:28.981Z,54.70
2019-02-03T03:36:56.238Z,50.47
2019-02-03T03:39:23.774Z,54.07
2019-02-03T03:41:51.026Z,54.13
2019-02-03T03:44:18.296Z,53.40
2019-02-03T03:46:45.568Z,53.07
2019-02-03T03:49:12.900Z,44.57
2019-02-03T03:51:40.181Z,51.60
2019-02-03T03:54:07.434Z,51.50
2019-02-03T03:56:34.726Z,51.90
2019-02-03T03:59:01.982Z,49.47
2019-02-03T04:01:29.566Z,50.73
2019-02-03T04:03:57.189Z,49.17
2019-02-03T04:06:24.442Z,46.13
2019-02-03T04:08:51.721Z,51.27
2019-02-03T04:11:19.044Z,43.90
2019-02-03T04:13:46.493Z,48.03
2019-02-03T04:16:13.751Z,49.53
2019-02-03T04:18:41.065Z,48.50
2019-02-03T04:21:08.395Z,45.67
2019-02-03T04:23:35.673Z,48.77
2019-02-03T04:26:02.946Z,44.77
2019-02-03T04:28:30.223Z,51.97
2019-02-03T04:30:57.475Z,44.10
2019-02-03T04:33:24.807Z,40.93
2019-02-03T04:35:52.155Z,46.90
2019-02-03T04:38:19.401Z,40.47
2019-02-03T04:40:46.686Z,42.50
2019-02-03T04:43:14.206Z,45.10
2019-02-03T04:45:41.490Z,46.90
2019-02-03T04:48:09.020Z,46.90
2019-02-03T04:50:36.308Z,43.73
2019-02-03T04:53:03.900Z,39.97
2019-02-03T04:55:31.246Z,40.57
2019-02-03T04:57:58.525Z,42.83
2019-02-03T05:00:25.779Z,42.20
2019-02-03T05:02:53.049Z,39.53
2019-02-03T05:05:20.381Z,41.47
2019-02-03T05:07:47.735Z,44.47
2019-02-03T05:10:15.417Z,35.57
2019-02-03T05:12:42.672Z,37.10
2019-02-03T05:15:14.104Z,37.87
2019-02-03T05:17:41.350Z,46.50
2019-02-03T05:20:10.107Z,37.23
2019-02-03T05:22:37.599Z,36.67
2019-02-03T05:25:05.937Z,40.50
2019-02-03T05:27:33.196Z,38.10
2019-02-03T05:30:00.496Z,36.33
2019-02-03T05:32:28.048Z,34.63
2019-02-03T05:34:55.329Z,37.60
2019-02-03T05:37:22.691Z,35.13
2019-02-03T05:39:50.346Z,39.90
2019-02-03T05:42:17.667Z,38.63
2019-02-03T05:44:44.958Z,35.83
2019-02-03T05:47:12.210Z,32.70
2019-02-03T05:49:39.485Z,31.50
2019-02-03T05:52:07.706Z,38.47
2019-02-03T05:54:34.990Z,70.30
2019-02-03T05:57:02.521Z,32.20
2019-02-03T05:59:29.802Z,28.53
2019-02-03T06:01:57.318Z,35.47
2019-02-03T06:04:24.866Z,28.20
2019-02-03T06:06:52.124Z,27.10
2019-02-03T06:09:19.420Z,29.30
2019-02-03T06:11:47.152Z,34.87
2019-02-03T06:14:14.395Z,34.73
2019-02-03T06:16:41.665Z,28.03
2019-02-03T06:19:08.940Z,26.47
2019-02-03T06:21:36.200Z,28.93
2019-02-03T06:24:03.651Z,28.07
2019-02-03T06:26:30.929Z,25.80
2019-02-03T06:28:58.456Z,25.57
2019-02-03T06:31:25.749Z,32.43
2019-02-03T06:33:53.135Z,28.03
2019-02-03T06:36:20.419Z,29.03
2019-02-03T06:38:47.948Z,25.50
2019-02-03T06:41:15.518Z,27.80
2019-02-03T06:43:50.779Z,35.70
2019-02-03T06:46:25.507Z,27.33
2019-02-03T06:48:54.525Z,28.53
2019-02-03T06:51:22.071Z,31.07
2019-02-03T06:53:49.326Z,30.20
2019-02-03T06:56:17.134Z,24.63
2019-02-03T06:58:44.414Z,30.53
2019-02-03T07:01:11.693Z,32.23
2019-02-03T07:03:39.213Z,32.97
2019-02-03T07:06:06.503Z,31.93
2019-02-03T07:08:34.039Z,28.57
2019-02-03T07:11:01.317Z,33.80
2019-02-03T07:13:28.750Z,32.77
2019-02-03T07:15:56.033Z,33.33
2019-02-03T07:18:23.286Z,34.67
2019-02-03T07:20:50.616Z,36.70
2019-02-03T07:23:17.902Z,32.07
2019-02-03T07:25:45.188Z,35.73
2019-02-03T07:28:12.681Z,31.80
2019-02-03T07:30:40.116Z,32.60
2019-02-03T07:33:07.390Z,31.63
2019-02-03T07:35:34.938Z,32.43
2019-02-03T07:38:02.182Z,37.47
2019-02-03T07:40:29.548Z,32.63
2019-02-03T07:42:56.799Z,36.93
2019-02-03T07:45:24.428Z,40.13
2019-02-03T07:47:51.699Z,38.30
2019-02-03T07:50:19.055Z,34.20
2019-02-03T07:52:46.382Z,37.70
2019-02-03T07:55:14.201Z,34.70
2019-02-03T07:57:41.491Z,39.70
2019-02-03T08:00:12.477Z,35.27
2019-02-03T08:02:39.764Z,38.97
2019-02-03T08:05:08.416Z,32.50
2019-02-03T08:07:35.704Z,36.73
2019-02-03T08:10:04.174Z,37.20
2019-02-03T08:12:31.502Z,39.90
2019-02-03T08:14:58.787Z,37.37
2019-02-03T08:17:26.494Z,39.20
2019-02-03T08:19:53.779Z,38.70
2019-02-03T08:22:21.030Z,39.00
2019-02-03T08:24:48.383Z,39.93
2019-02-03T08:27:15.639Z,38.90
2019-02-03T08:29:42.994Z,39.70
2019-02-03T08:32:10.454Z,38.10
2019-02-03T08:34:38.113Z,36.90
2019-02-03T08:37:05.464Z,44.10
2019-02-03T08:39:32.714Z,36.60
2019-02-03T08:42:00.314Z,42.90
2019-02-03T08:44:27.596Z,44.90
2019-02-03T08:46:54.954Z,44.37
2019-02-03T08:49:22.212Z,42.00
2019-02-03T08:51:49.769Z,41.27
2019-02-03T08:54:17.023Z,44.93
2019-02-03T08:56:44.575Z,42.57
2019-02-03T08:59:11.897Z,44.93
2019-02-03T09:01:39.149Z,40.07
2019-02-03T09:04:06.434Z,40.13
2019-02-03T09:06:34.062Z,47.17
2019-02-03T09:09:01.359Z,38.93
2019-02-03T09:11:28.865Z,33.93
2019-02-03T09:13:56.190Z,41.97
2019-02-03T09:16:23.542Z,39.50
2019-02-03T09:18:50.789Z,37.87
2019-02-03T09:21:18.086Z,40.23
2019-02-03T09:23:45.605Z,38.90
2019-02-03T09:26:12.858Z,43.63
2019-02-03T09:28:40.125Z,41.47
2019-02-03T09:31:07.377Z,40.37
2019-02-03T09:33:34.662Z,42.53
2019-02-03T09:36:01.936Z,38.13
2019-02-03T09:38:29.226Z,41.23
2019-02-03T09:41:00.185Z,41.23
2019-02-03T09:43:25.831Z,42.80
2019-02-03T09:45:53.118Z,39.90
2019-02-03T09:48:20.963Z,43.67
2019-02-03T09:50:48.239Z,41.93
2019-02-03T09:53:15.494Z,39.53
2019-02-03T09:55:42.777Z,41.10
2019-02-03T09:58:10.071Z,39.07
2019-02-03T10:00:37.781Z,47.27
2019-02-03T10:03:06.142Z,42.50
2019-02-03T10:05:33.398Z,47.80
2019-02-03T10:08:00.656Z,48.30
2019-02-03T10:10:29.549Z,43.93
2019-02-03T10:12:57.201Z,43.67
2019-02-03T10:15:24.484Z,45.30
2019-02-03T10:17:51.753Z,40.60
2019-02-03T10:20:20.065Z,48.63
2019-02-03T10:22:47.317Z,40.13
2019-02-03T10:25:18.474Z,53.30
2019-02-03T10:27:46.107Z,44.43
2019-02-03T10:30:14.711Z,43.20
2019-02-03T10:32:42.283Z,45.70
2019-02-03T10:35:22.689Z,46.67
2019-02-03T10:37:40.369Z,47.33
2019-02-03T10:40:09.149Z,52.10
2019-02-03T10:42:36.774Z,47.50
2019-02-03T10:45:05.438Z,50.10
2019-02-03T10:47:32.718Z,52.50
2019-02-03T10:50:01.513Z,49.37
2019-02-03T10:52:29.155Z,49.90
2019-02-03T10:54:56.407Z,49.30
2019-02-03T10:57:23.933Z,51.33
2019-02-03T10:59:51.848Z,51.73
2019-02-03T11:02:19.175Z,51.27
2019-02-03T11:04:46.462Z,45.00
2019-02-03T11:07:13.789Z,54.37
2019-02-03T11:09:41.044Z,47.37
2019-02-03T11:12:08.321Z,48.57
2019-02-03T11:14:35.596Z,52.77
2019-02-03T11:17:02.855Z,51.13
2019-02-03T11:19:30.141Z,43.13
2019-02-03T11:21:57.465Z,42.83
2019-02-03T11:24:24.813Z,51.07
2019-02-03T11:26:52.175Z,54.17
2019-02-03T11:29:19.450Z,48.40
2019-02-03T11:31:46.706Z,45.00
2019-02-03T11:34:13.987Z,42.00
2019-02-03T11:36:41.777Z,54.83
2019-02-03T11:39:09.230Z,40.60
2019-02-03T11:41:48.275Z,41.20
2019-02-03T11:44:05.910Z,42.30
2019-02-03T11:46:33.270Z,39.63
2019-02-03T11:49:00.810Z,40.00
2019-02-03T11:51:28.386Z,38.67
2019-02-03T11:53:55.910Z,42.47
2019-02-03T11:56:23.203Z,43.17
2019-02-03T11:58:50.449Z,39.40
2019-02-03T12:01:17.734Z,46.77
2019-02-03T12:03:45.249Z,36.57
2019-02-03T12:06:12.698Z,40.27
2019-02-03T12:08:40.198Z,41.27
2019-02-03T12:11:07.572Z,40.30
2019-02-03T12:13:34.821Z,37.90
2019-02-03T12:16:02.334Z,36.07
2019-02-03T12:18:29.624Z,35.27
2019-02-03T12:20:56.886Z,40.33
2019-02-03T12:23:24.238Z,31.57
2019-02-03T12:25:52.038Z,35.37
2019-02-03T12:28:19.286Z,34.73
2019-02-03T12:30:46.615Z,31.20
2019-02-03T12:33:14.339Z,29.10
2019-02-03T12:35:41.632Z,29.40
2019-02-03T12:38:08.911Z,33.20
2019-02-03T12:40:37.507Z,30.80
2019-02-03T12:43:04.858Z,25.77
2019-02-03T12:45:32.181Z,25.23
2019-02-03T12:47:59.528Z,27.40
2019-02-03T12:50:26.781Z,23.73
2019-02-03T12:52:54.375Z,25.33
2019-02-03T12:55:25.558Z,23.80
2019-02-03T12:57:53.157Z,22.80
2019-02-03T13:00:21.803Z,21.00
2019-02-03T13:02:49.826Z,22.50
2019-02-03T13:05:18.545Z,19.77
2019-02-03T13:07:45.905Z,20.93
2019-02-03T13:10:16.645Z,15.50
2019-02-03T13:12:43.673Z,18.07
2019-02-03T13:15:12.490Z,15.20
2019-02-03T13:17:39.733Z,13.03
2019-02-03T13:20:08.555Z,11.73
2019-02-03T13:22:36.155Z,12.53
2019-02-03T13:25:04.443Z,12.47
2019-02-03T13:27:31.744Z,13.93
2019-02-03T13:29:59.000Z,13.60
2019-02-03T13:32:26.251Z,10.93
2019-02-03T13:34:54.061Z,10.33
2019-02-03T13:37:21.349Z,13.47
2019-02-03T13:39:48.630Z,13.23
2019-02-03T13:42:16.087Z,10.47
2019-02-03T13:44:43.335Z,12.47
2019-02-03T13:47:10.609Z,23.67
2019-02-03T13:49:37.930Z,10.80
2019-02-03T13:52:05.282Z,13.90
2019-02-03T13:54:32.642Z,14.10
2019-02-03T13:57:00.267Z,35.13
2019-02-03T13:59:27.897Z,10.40
2019-02-03T14:01:55.167Z,7.53
2019-02-03T14:04:22.439Z,8.67
2019-02-03T14:06:49.691Z,11.30
2019-02-03T14:09:16.968Z,7.70
2019-02-03T14:11:44.318Z,10.47
2019-02-03T14:14:11.677Z,14.73
2019-02-03T14:16:39.007Z,9.50
2019-02-03T14:19:06.601Z,10.07
2019-02-03T14:21:33.951Z,7.90
2019-02-03T14:24:01.200Z,6.63
2019-02-03T14:26:28.558Z,7.60
2019-02-03T14:28:56.354Z,9.80
2019-02-03T14:31:23.734Z,7.80
2019-02-03T14:33:51.339Z,8.20
2019-02-03T14:36:18.851Z,9.87
2019-02-03T14:38:46.195Z,8.90
2019-02-03T14:41:13.433Z,9.90
2019-02-03T14:43:40.709Z,12.00
2019-02-03T14:46:08.034Z,8.40
2019-02-03T14:48:35.314Z,8.77
2019-02-03T14:51:03.694Z,9.03
2019-02-03T14:53:31.224Z,7.70
2019-02-03T14:55:58.487Z,7.60
2019-02-03T14:58:25.825Z,11.57
2019-02-03T15:00:53.354Z,7.93
2019-02-03T15:03:20.696Z,11.73
2019-02-03T15:05:48.330Z,6.70
2019-02-03T15:08:15.798Z,7.30
2019-02-03T15:10:43.451Z,6.30
2019-02-03T15:13:13.828Z,9.40
2019-02-03T15:15:39.981Z,7.70
2019-02-03T15:18:07.685Z,6.70
2019-02-03T15:20:35.047Z,7.87
2019-02-03T15:23:02.360Z,5.70
2019-02-03T15:25:29.874Z,4.00
2019-02-03T15:27:57.222Z,7.27
2019-02-03T15:30:28.725Z,6.20
2019-02-03T15:32:56.080Z,6.23
2019-02-03T15:35:23.325Z,7.03
2019-02-03T15:37:50.593Z,6.80
2019-02-03T15:40:19.137Z,6.13
2019-02-03T15:42:46.486Z,6.93
2019-02-03T15:45:14.882Z,5.70
2019-02-03T15:47:42.153Z,6.40
2019-02-03T15:50:11.167Z,7.07
2019-02-03T15:52:38.435Z,3.80
2019-02-03T15:55:07.273Z,6.63
2019-02-03T15:57:34.537Z,4.27
2019-02-03T16:00:02.068Z,6.87
2019-02-03T16:02:29.312Z,7.70
2019-02-03T16:04:56.585Z,4.53
2019-02-03T16:07:23.832Z,5.40
2019-02-03T16:09:51.105Z,4.77
2019-02-03T16:12:18.350Z,6.70
2019-02-03T16:14:45.891Z,6.70
2019-02-03T16:17:13.516Z,4.47
2019-02-03T16:19:40.839Z,6.40
2019-02-03T16:22:08.183Z,4.23
2019-02-03T16:24:35.425Z,7.03
2019-02-03T16:27:03.044Z,8.67
2019-02-03T16:29:30.321Z,5.73
2019-02-03T16:31:57.558Z,5.20
2019-02-03T16:34:24.821Z,6.13
2019-02-03T16:36:52.149Z,5.60
2019-02-03T16:39:19.668Z,6.67
2019-02-03T16:41:47.117Z,7.50
2019-02-03T16:44:14.396Z,16.50
2019-02-03T16:46:41.912Z,6.70
2019-02-03T16:49:09.265Z,6.63
2019-02-03T16:51:36.656Z,8.63
2019-02-03T16:54:04.274Z,9.83
2019-02-03T16:56:31.530Z,5.83
2019-02-03T16:58:58.806Z,7.40
2019-02-03T17:01:26.076Z,10.37
2019-02-03T17:03:53.402Z,4.27
2019-02-03T17:06:20.715Z,8.00
2019-02-03T17:08:48.200Z,7.80
2019-02-03T17:11:15.533Z,8.47
2019-02-03T17:13:42.822Z,7.10
2019-02-03T17:16:10.092Z,5.92
2019-02-03T17:18:37.409Z,10.80
2019-02-03T17:21:04.698Z,10.80
2019-02-03T17:23:31.946Z,7.93
2019-02-03T17:26:00.834Z,6.37
2019-02-03T17:28:28.405Z,6.20
2019-02-03T17:30:55.735Z,7.10
2019-02-03T17:33:23.066Z,8.67
2019-02-03T17:35:54.643Z,7.53
2019-02-03T17:38:19.807Z,8.53
2019-02-03T17:40:47.321Z,6.03
2019-02-03T17:43:14.565Z,7.40
2019-02-03T17:45:41.919Z,6.67
2019-02-03T17:48:09.332Z,4.73
2019-02-03T17:50:36.651Z,5.50
2019-02-03T17:53:04.291Z,6.83
2019-02-03T17:55:31.633Z,5.27
2019-02-03T17:57:59.249Z,6.83
2019-02-03T18:00:29.126Z,5.10
2019-02-03T18:02:56.682Z,6.90
2019-02-03T18:05:23.977Z,5.17
2019-02-03T18:07:51.519Z,7.80
2019-02-03T18:10:20.089Z,6.23
2019-02-03T18:12:48.121Z,11.43
2019-02-03T18:15:16.166Z,6.17
2019-02-03T18:17:43.430Z,5.00
2019-02-03T18:20:19.042Z,6.10
2019-02-03T18:22:46.403Z,4.50
2019-02-03T18:25:13.754Z,7.63
2019-02-03T18:27:41.474Z,8.60
2019-02-03T18:30:10.717Z,6.03
2019-02-03T18:32:37.962Z,5.80
2019-02-03T18:35:07.005Z,6.20
2019-02-03T18:37:34.295Z,6.43
2019-02-03T18:40:01.544Z,6.43
2019-02-03T18:42:29.144Z,5.63
2019-02-03T18:44:56.430Z,6.80
2019-02-03T18:47:23.673Z,6.43
2019-02-03T18:49:51.006Z,6.13
2019-02-03T18:52:18.354Z,7.13
2019-02-03T18:54:45.866Z,8.43
2019-02-03T18:57:13.216Z,6.93
2019-02-03T18:59:40.842Z,5.87
2019-02-03T19:02:09.270Z,6.57
2019-02-03T19:04:36.518Z,10.83
2019-02-03T19:07:04.225Z,6.60
2019-02-03T19:09:31.942Z,9.07
2019-02-03T19:11:59.446Z,5.93
2019-02-03T19:14:27.480Z,6.93
2019-02-03T19:16:55.641Z,5.50
2019-02-03T19:19:23.019Z,5.30
2019-02-03T19:21:50.318Z,7.60
2019-02-03T19:24:17.769Z,8.30
2019-02-03T19:26:45.007Z,11.23
2019-02-03T19:29:15.666Z,9.77
2019-02-03T19:31:43.258Z,9.37
2019-02-03T19:34:10.526Z,9.47
2019-02-03T19:36:37.851Z,9.67
2019-02-03T19:39:06.661Z,10.10
2019-02-03T19:41:33.905Z,6.30
2019-02-03T19:44:01.173Z,7.63
2019-02-03T19:46:28.413Z,7.00
2019-02-03T19:48:55.681Z,8.10
2019-02-03T19:51:22.958Z,9.63
2019-02-03T19:53:50.271Z,8.57
2019-02-03T19:56:17.542Z,8.37
2019-02-03T19:58:44.814Z,11.83
2019-02-03T20:01:12.241Z,10.30
2019-02-03T20:03:39.887Z,8.43
2019-02-03T20:06:07.237Z,7.77
2019-02-03T20:08:34.487Z,8.27
2019-02-03T20:11:01.806Z,6.60
2019-02-03T20:13:29.078Z,10.90
2019-02-03T20:15:56.434Z,11.80
2019-02-03T20:18:23.710Z,9.77
2019-02-03T20:20:51.366Z,7.63
2019-02-03T20:23:18.901Z,9.30
2019-02-03T20:25:46.194Z,9.97
2019-02-03T20:28:13.472Z,8.30
2019-02-03T20:30:40.810Z,10.80
2019-02-03T20:33:08.066Z,11.70
2019-02-03T20:35:35.422Z,12.27
2019-02-03T20:38:02.952Z,14.03
2019-02-03T20:40:37.484Z,12.17
2019-02-03T20:43:04.931Z,13.00
2019-02-03T20:45:32.349Z,11.73
2019-02-03T20:47:59.692Z,10.80
2019-02-03T20:50:27.238Z,14.40
2019-02-03T20:52:55.234Z,11.13
2019-02-03T20:55:22.995Z,11.43
2019-02-03T20:57:50.286Z,11.43
2019-02-03T21:00:19.186Z,9.30
2019-02-03T21:02:46.476Z,9.60
2019-02-03T21:05:14.051Z,10.30
2019-02-03T21:07:41.928Z,14.70
2019-02-03T21:10:11.574Z,10.00
2019-02-03T21:12:39.098Z,10.83
2019-02-03T21:15:07.882Z,8.63
2019-02-03T21:17:35.410Z,11.50
2019-02-03T21:20:02.758Z,10.23
2019-02-03T21:22:30.006Z,10.20
2019-02-03T21:24:57.559Z,9.53
2019-02-03T21:27:24.838Z,11.03
2019-02-03T21:29:52.087Z,12.60
2019-02-03T21:32:19.626Z,10.77
2019-02-03T21:34:46.872Z,9.30
2019-02-03T21:37:14.126Z,10.57
2019-02-03T21:39:41.399Z,12.47
2019-02-03T21:42:09.265Z,10.80
2019-02-03T21:44:36.539Z,9.30
2019-02-03T21:47:03.858Z,12.57
2019-02-03T21:49:31.129Z,13.53
2019-02-03T21:51:58.386Z,13.73
2019-02-03T21:54:25.670Z,10.90
2019-02-03T21:56:52.996Z,10.53
2019-02-03T21:59:20.342Z,10.63
2019-02-03T22:01:47.851Z,16.50
2019-02-03T22:04:15.200Z,10.57
2019-02-03T22:06:42.450Z,15.20
2019-02-03T22:09:09.692Z,13.23
2019-02-03T22:11:36.970Z,12.37
2019-02-03T22:14:04.392Z,13.57
2019-02-03T22:16:31.679Z,12.13
2019-02-03T22:18:58.927Z,10.73
2019-02-03T22:21:26.170Z,10.93
2019-02-03T22:23:53.441Z,10.97
2019-02-03T22:26:21.015Z,16.03
2019-02-03T22:28:48.290Z,10.23
2019-02-03T22:31:15.837Z,8.60
2019-02-03T22:33:43.118Z,7.77
2019-02-03T22:36:10.367Z,9.30
2019-02-03T22:38:37.614Z,15.53
2019-02-03T22:41:04.958Z,11.60
2019-02-03T22:43:32.315Z,11.80
2019-02-03T22:46:06.675Z,10.77
2019-02-03T22:48:28.635Z,12.67
2019-02-03T22:50:55.911Z,10.97
2019-02-03T22:53:23.180Z,11.33
2019-02-03T22:55:50.424Z,11.17
2019-02-03T22:58:17.688Z,12.73
2019-02-03T23:00:51.789Z,12.90
2019-02-03T23:03:19.693Z,12.90
2019-02-03T23:05:47.186Z,10.47
2019-02-03T23:08:14.479Z,13.37
2019-02-03T23:10:41.726Z,11.43
2019-02-03T23:13:09.247Z,11.03
2019-02-03T23:15:36.584Z,13.20
2019-02-03T23:18:04.732Z,10.30
2019-02-03T23:20:32.011Z,12.97
2019-02-03T23:22:59.260Z,12.73
2019-02-03T23:25:26.786Z,14.07
2019-02-03T23:27:54.062Z,12.93
2019-02-03T23:30:21.570Z,12.60
2019-02-03T23:32:48.862Z,12.90
2019-02-03T23:35:16.386Z,13.73
2019-02-03T23:37:43.637Z,15.30
2019-02-03T23:40:12.374Z,15.17
2019-02-03T23:42:39.699Z,14.00
2019-02-03T23:45:08.742Z,15.87
2019-02-03T23:47:36.287Z,13.53
2019-02-03T23:50:05.260Z,16.57
2019-02-03T23:52:32.534Z,19.57
2019-02-03T23:54:59.890Z,13.13
2019-02-03T23:57:27.162Z,13.30
2019-02-03T23:59:54.486Z,12.50
